createdAt,value
2018-12-19T00:01:35.767Z,2.50
2018-12-19T00:07:40.633Z,2.50
2018-12-19T00:13:45.949Z,2.53
2018-12-19T00:19:50.706Z,2.17
2018-12-19T00:25:55.608Z,2.47
2018-12-19T00:32:00.381Z,2.40
2018-12-19T00:38:05.237Z,2.67
2018-12-19T00:44:10.259Z,2.73
2018-12-19T00:50:15.417Z,2.87
2018-12-19T00:56:20.949Z,3.03
2018-12-19T01:02:25.743Z,2.50
2018-12-19T01:08:30.757Z,2.67
2018-12-19T01:14:41.667Z,2.60
2018-12-19T01:20:46.409Z,3.00
2018-12-19T01:26:51.262Z,3.00
2018-12-19T01:32:58.824Z,2.47
2018-12-19T01:39:05.775Z,3.07
2018-12-19T01:45:11.242Z,3.43
2018-12-19T01:51:15.947Z,2.83
2018-12-19T01:57:20.632Z,2.80
2018-12-19T02:03:25.468Z,3.00
2018-12-19T02:09:30.139Z,2.90
2018-12-19T02:15:35.023Z,3.40
2018-12-19T02:21:39.871Z,3.20
2018-12-19T02:27:44.629Z,3.23
2018-12-19T02:33:50.466Z,2.77
2018-12-19T02:39:55.145Z,3.20
2018-12-19T02:46:00.136Z,3.47
2018-12-19T02:52:05.673Z,3.13
2018-12-19T02:58:10.670Z,3.30
2018-12-19T03:04:15.568Z,3.63
2018-12-19T03:10:21.216Z,3.47
2018-12-19T03:16:26.127Z,3.17
2018-12-19T03:22:30.896Z,3.67
2018-12-19T03:28:35.788Z,3.90
2018-12-19T03:34:40.474Z,3.87
2018-12-19T03:40:45.602Z,4.60
2018-12-19T03:46:50.328Z,4.70
2018-12-19T03:52:55.134Z,4.00
2018-12-19T03:58:59.913Z,4.10
2018-12-19T04:05:04.912Z,4.03
2018-12-19T04:11:09.846Z,4.40
2018-12-19T04:17:15.221Z,3.57
2018-12-19T04:23:20.692Z,4.00
2018-12-19T04:29:25.817Z,3.70
2018-12-19T04:35:31.293Z,3.60
2018-12-19T04:41:36.449Z,3.20
2018-12-19T04:47:41.123Z,3.80
2018-12-19T04:53:45.826Z,3.33
2018-12-19T04:59:51.543Z,3.60
2018-12-19T05:05:56.508Z,3.70
2018-12-19T05:12:01.398Z,3.03
2018-12-19T05:18:06.217Z,3.20
2018-12-19T05:24:11.312Z,3.60
2018-12-19T05:30:16.267Z,3.37
2018-12-19T05:36:21.994Z,3.43
2018-12-19T05:42:27.133Z,3.70
2018-12-19T05:48:32.272Z,5.20
2018-12-19T05:54:37.302Z,4.03
2018-12-19T06:00:42.495Z,4.53
2018-12-19T06:06:47.800Z,4.10
2018-12-19T06:12:52.846Z,4.60
2018-12-19T06:18:58.145Z,4.93
2018-12-19T06:25:03.264Z,5.17
2018-12-19T06:31:08.448Z,5.30
2018-12-19T06:37:14.823Z,5.97
2018-12-19T06:43:20.044Z,6.60
2018-12-19T06:49:25.170Z,6.73
2018-12-19T06:55:30.131Z,6.50
2018-12-19T07:01:35.490Z,6.90
2018-12-19T07:07:40.733Z,6.90
2018-12-19T07:13:46.094Z,6.97
2018-12-19T07:19:51.951Z,7.00
2018-12-19T07:25:56.859Z,6.73
2018-12-19T07:32:01.773Z,6.37
2018-12-19T07:38:06.671Z,6.30
2018-12-19T07:44:11.692Z,6.37
2018-12-19T07:50:16.584Z,7.13
2018-12-19T07:56:22.118Z,5.80
2018-12-19T08:02:26.860Z,5.80
2018-12-19T08:08:31.851Z,5.57
2018-12-19T08:14:36.672Z,5.30
2018-12-19T08:20:42.190Z,5.13
2018-12-19T08:26:47.287Z,5.30
2018-12-19T08:32:52.114Z,6.00
2018-12-19T08:38:57.030Z,5.20
2018-12-19T08:45:02.064Z,5.37
2018-12-19T08:51:07.105Z,6.17
2018-12-19T08:57:12.724Z,5.40
2018-12-19T09:03:17.750Z,5.40
2018-12-19T09:09:36.458Z,4.33
2018-12-19T09:15:46.638Z,5.10
2018-12-19T09:21:51.557Z,4.97
2018-12-19T09:27:56.406Z,5.20
2018-12-19T09:34:01.514Z,5.30
2018-12-19T09:40:06.989Z,4.77
2018-12-19T09:46:12.138Z,4.50
2018-12-19T09:52:17.058Z,4.50
2018-12-19T09:58:22.477Z,4.60
2018-12-19T10:04:27.319Z,5.47
2018-12-19T10:10:38.095Z,4.53
2018-12-19T10:16:42.946Z,4.80
2018-12-19T10:22:50.329Z,4.17
2018-12-19T10:28:55.030Z,4.43
2018-12-19T10:35:00.273Z,4.13
2018-12-19T10:41:05.295Z,6.63
2018-12-19T10:47:10.337Z,4.00
2018-12-19T10:53:16.505Z,4.37
2018-12-19T10:59:21.277Z,3.80
2018-12-19T11:05:25.980Z,3.90
2018-12-19T11:11:32.403Z,3.90
2018-12-19T11:17:37.518Z,4.80
2018-12-19T11:23:42.321Z,4.50
2018-12-19T11:29:47.278Z,3.77
2018-12-19T11:35:52.351Z,3.87
2018-12-19T11:41:57.316Z,4.23
2018-12-19T11:48:02.279Z,4.80
2018-12-19T11:54:07.383Z,4.80
2018-12-19T12:00:12.513Z,4.57
2018-12-19T12:06:17.455Z,4.40
2018-12-19T12:12:22.569Z,4.80
2018-12-19T12:18:28.755Z,4.80
2018-12-19T12:24:33.538Z,4.33
2018-12-19T12:30:38.243Z,4.17
2018-12-19T12:36:43.371Z,5.17
2018-12-19T12:42:48.714Z,9.13
2018-12-19T12:48:54.484Z,6.03
2018-12-19T12:54:59.249Z,4.30
2018-12-19T13:01:04.155Z,3.17
2018-12-19T13:07:10.758Z,6.77
2018-12-19T13:13:15.613Z,4.80
2018-12-19T13:19:20.723Z,2.90
2018-12-19T13:25:25.534Z,3.13
2018-12-19T13:31:30.307Z,7.80
2018-12-19T13:37:35.310Z,4.20
2018-12-19T13:43:40.231Z,2.20
2018-12-19T13:49:47.298Z,2.23
2018-12-19T13:55:52.601Z,2.03
2018-12-19T14:01:57.641Z,2.13
2018-12-19T14:08:02.549Z,2.23
2018-12-19T14:14:07.693Z,1.87
2018-12-19T14:20:13.331Z,2.17
2018-12-19T14:26:18.389Z,1.70
2018-12-19T14:32:23.149Z,1.83
2018-12-19T14:38:28.740Z,1.70
2018-12-19T14:44:33.627Z,1.63
2018-12-19T14:50:38.361Z,2.50
2018-12-19T14:56:43.364Z,2.17
2018-12-19T15:02:48.469Z,2.53
2018-12-19T15:08:53.221Z,1.93
2018-12-19T15:14:58.000Z,2.10
2018-12-19T15:21:02.814Z,1.77
2018-12-19T15:27:07.647Z,1.77
2018-12-19T15:33:18.472Z,2.30
2018-12-19T15:39:23.354Z,1.70
2018-12-19T15:45:28.223Z,1.70
2018-12-19T15:51:32.943Z,1.70
2018-12-19T15:57:38.006Z,2.20
2018-12-19T16:03:42.802Z,1.93
2018-12-19T16:09:47.546Z,2.20
2018-12-19T16:15:52.303Z,2.30
2018-12-19T16:21:57.233Z,2.00
2018-12-19T16:28:01.985Z,2.33
2018-12-19T16:34:06.724Z,4.53
2018-12-19T16:40:11.532Z,2.37
2018-12-19T16:46:16.353Z,1.80
2018-12-19T16:52:21.133Z,2.40
2018-12-19T16:58:25.961Z,2.10
2018-12-19T17:04:30.758Z,2.30
2018-12-19T17:10:35.776Z,2.73
2018-12-19T17:16:40.512Z,2.03
2018-12-19T17:22:45.207Z,4.87
2018-12-19T17:28:50.019Z,2.60
2018-12-19T17:34:54.749Z,2.80
2018-12-19T17:41:00.432Z,2.93
2018-12-19T17:47:05.222Z,3.27
2018-12-19T17:53:09.948Z,4.40
2018-12-19T17:59:14.658Z,3.70
2018-12-19T18:05:19.311Z,3.93
2018-12-19T18:11:24.088Z,3.87
2018-12-19T18:17:28.879Z,3.50
2018-12-19T18:23:33.556Z,6.00
2018-12-19T18:29:38.353Z,2.40
2018-12-19T18:35:43.082Z,2.97
2018-12-19T18:41:47.808Z,4.53
2018-12-19T18:47:52.803Z,3.73
2018-12-19T18:53:57.500Z,3.40
2018-12-19T19:00:02.280Z,2.97
2018-12-19T19:06:10.181Z,2.87
2018-12-19T19:12:14.946Z,2.67
2018-12-19T19:18:19.901Z,3.00
2018-12-19T19:24:24.662Z,3.50
2018-12-19T19:30:29.519Z,2.93
2018-12-19T19:36:34.342Z,3.80
2018-12-19T19:42:39.256Z,3.77
2018-12-19T19:48:45.532Z,3.20
2018-12-19T19:54:50.383Z,3.40
2018-12-19T20:00:55.258Z,3.23
2018-12-19T20:07:01.140Z,3.70
2018-12-19T20:13:06.096Z,3.50
2018-12-19T20:19:10.914Z,3.97
2018-12-19T20:25:16.297Z,4.17
2018-12-19T20:31:22.071Z,4.30
2018-12-19T20:37:26.920Z,4.17
2018-12-19T20:43:40.121Z,4.37
2018-12-19T20:49:45.184Z,5.43
2018-12-19T20:55:50.213Z,4.93
2018-12-19T21:01:55.145Z,5.10
2018-12-19T21:08:02.763Z,5.33
2018-12-19T21:14:07.630Z,4.60
2018-12-19T21:20:12.333Z,5.10
2018-12-19T21:26:17.334Z,5.03
2018-12-19T21:32:22.998Z,4.43
2018-12-19T21:38:28.018Z,5.50
2018-12-19T21:44:34.431Z,4.40
2018-12-19T21:50:39.466Z,4.70
2018-12-19T21:56:44.389Z,5.10
2018-12-19T22:02:50.025Z,5.40
2018-12-19T22:08:54.811Z,5.53
2018-12-19T22:14:59.566Z,5.77
2018-12-19T22:21:04.947Z,5.33
2018-12-19T22:27:10.052Z,5.77
2018-12-19T22:33:14.886Z,5.07
2018-12-19T22:39:20.094Z,5.03
2018-12-19T22:45:24.940Z,5.63
2018-12-19T22:51:29.893Z,5.43
2018-12-19T22:57:34.660Z,5.60
2018-12-19T23:03:44.551Z,5.40
2018-12-19T23:09:49.452Z,5.87
2018-12-19T23:15:54.397Z,5.87
2018-12-19T23:21:59.420Z,6.43
2018-12-19T23:28:04.540Z,6.50
2018-12-19T23:34:09.608Z,6.77
2018-12-19T23:40:14.975Z,6.30
2018-12-19T23:46:20.069Z,6.00
2018-12-19T23:52:25.082Z,6.53
2018-12-19T23:58:31.144Z,5.60
